Time;durP1;ratioP1;P1;durP2;ratioP2;P2;SDS_P1;SDS_P2;PMS_P1;PMS_P2;Temp;Humidity;BMP_temperature;BMP_pressure;BME280_temperature;BME280_humidity;BME280_pressure;Samples;Min_cycle;Max_cycle;Signal;HPM_P1;HPM_P2
2021/08/08 00:02:07;;;;;;;8.18;1.40;;;;;;;20.09;64.20;99217.86;125735;1096;22831;-80
2021/08/08 00:04:38;;;;;;;7.80;1.33;;;;;;;20.12;64.32;99213.90;125770;1096;22864;-79
2021/08/08 00:07:10;;;;;;;5.33;1.43;;;;;;;20.16;64.43;99211.44;125819;1096;22765;-81
2021/08/08 00:09:42;;;;;;;5.43;1.40;;;;;;;20.20;64.20;99211.06;125761;1096;24628;-79
2021/08/08 00:12:14;;;;;;;6.68;1.40;;;;;;;20.22;64.46;99208.42;125796;1097;25963;-80
2021/08/08 00:14:46;;;;;;;5.78;1.50;;;;;;;20.23;64.40;99195.77;125819;1095;22863;-78
2021/08/08 00:17:17;;;;;;;7.43;1.27;;;;;;;20.24;64.49;99205.00;125879;1096;22869;-79
2021/08/08 00:19:51;;;;;;;4.68;1.20;;;;;;;20.25;64.53;99223.53;125688;1096;22887;-78
2021/08/08 00:22:23;;;;;;;4.65;1.03;;;;;;;20.23;64.66;99238.28;125793;1096;22871;-79
2021/08/08 00:24:55;;;;;;;2.38;0.60;;;;;;;20.02;64.73;99244.14;125722;1096;22886;-82
2021/08/08 00:27:36;;;;;;;6.58;0.70;;;;;;;19.80;65.37;99239.23;125845;1095;26299;-78
2021/08/08 00:30:09;;;;;;;4.20;0.60;;;;;;;19.58;67.25;99254.14;125774;1096;23421;-78
2021/08/08 00:32:42;;;;;;;3.18;0.53;;;;;;;19.33;67.71;99236.16;125859;1096;22809;-80
2021/08/08 00:35:13;;;;;;;6.20;0.68;;;;;;;19.11;68.10;99234.81;125880;1096;26021;-78
2021/08/08 00:37:44;;;;;;;2.35;0.43;;;;;;;18.95;69.25;99241.75;125718;1096;24500;-79
2021/08/08 00:40:18;;;;;;;2.17;0.43;;;;;;;18.81;68.41;99223.39;125808;1095;22880;-79
2021/08/08 00:42:49;;;;;;;3.47;0.70;;;;;;;18.73;69.23;99216.20;125724;1096;24712;-79
2021/08/08 00:45:22;;;;;;;2.50;0.50;;;;;;;18.64;69.80;99225.23;125854;1096;25887;-78
2021/08/08 00:47:53;;;;;;;2.83;0.67;;;;;;;18.54;69.93;99228.56;125865;1095;22873;-78
2021/08/08 00:50:25;;;;;;;2.03;0.50;;;;;;;18.47;71.19;99217.23;125821;1096;22812;-79
2021/08/08 00:52:56;;;;;;;2.10;0.60;;;;;;;18.42;71.31;99246.38;125682;1096;22918;-79
2021/08/08 00:55:27;;;;;;;3.03;0.50;;;;;;;18.35;71.35;99253.49;125791;1096;22822;-80
2021/08/08 00:57:58;;;;;;;2.13;0.60;;;;;;;18.30;71.53;99271.38;125825;1096;22837;-79
2021/08/08 01:00:30;;;;;;;2.43;0.60;;;;;;;18.25;71.98;99277.92;125776;1096;22800;-78
2021/08/08 01:03:06;;;;;;;4.30;0.60;;;;;;;18.19;73.76;99277.31;125712;1096;24487;-79
2021/08/08 01:05:42;;;;;;;6.55;0.90;;;;;;;18.13;74.08;99279.53;125700;1096;25660;-79
2021/08/08 01:08:20;;;;;;;5.17;0.80;;;;;;;18.07;73.04;99270.45;125795;1096;22834;-81
2021/08/08 01:10:52;;;;;;;4.90;0.70;;;;;;;18.02;73.48;99274.17;125645;1096;22867;-79
2021/08/08 01:13:26;;;;;;;6.60;1.00;;;;;;;17.96;74.35;99278.48;125722;1096;22869;-81
2021/08/08 01:15:57;;;;;;;4.95;0.70;;;;;;;17.92;74.19;99275.25;125826;1096;22834;-79
2021/08/08 01:18:30;;;;;;;4.55;0.80;;;;;;;17.87;75.56;99278.96;125789;1096;27798;-79
2021/08/08 01:21:03;;;;;;;5.50;0.50;;;;;;;17.81;75.40;99273.47;125663;1096;22943;-80
2021/08/08 01:23:37;;;;;;;2.87;0.70;;;;;;;17.75;75.33;99281.33;125816;1096;22860;-80
2021/08/08 01:26:08;;;;;;;4.25;0.75;;;;;;;17.67;75.89;99277.68;125765;1095;22798;-81
2021/08/08 01:28:40;;;;;;;6.25;0.80;;;;;;;17.62;76.14;99281.39;125687;1096;22789;-79
2021/08/08 01:31:12;;;;;;;3.00;0.80;;;;;;;17.54;77.50;99267.22;125782;1096;22810;-79
2021/08/08 01:33:44;;;;;;;3.45;0.65;;;;;;;17.47;77.38;99269.92;125661;1096;27335;-79
2021/08/08 01:36:15;;;;;;;6.80;1.00;;;;;;;17.39;77.31;99286.78;125705;1096;27654;-79
2021/08/08 01:38:56;;;;;;;3.63;0.83;;;;;;;17.37;76.78;99319.66;125783;1096;22941;-79
2021/08/08 01:41:29;;;;;;;6.90;0.90;;;;;;;17.33;77.11;99317.19;125710;1095;22793;-78
2021/08/08 01:44:02;;;;;;;5.60;0.70;;;;;;;17.34;78.00;99346.17;125832;1096;22790;-78
2021/08/08 01:46:34;;;;;;;5.25;0.80;;;;;;;17.32;77.60;99360.06;125745;1096;22896;-79
2021/08/08 01:49:07;;;;;;;4.15;0.80;;;;;;;17.32;77.78;99372.08;125816;1096;27223;-78
2021/08/08 01:51:38;;;;;;;5.03;0.90;;;;;;;17.34;77.94;99382.84;125863;1096;26353;-78
2021/08/08 01:54:10;;;;;;;6.00;0.70;;;;;;;17.33;78.19;99399.01;125806;1096;22784;-78
2021/08/08 01:56:41;;;;;;;5.35;1.00;;;;;;;17.32;78.86;99408.02;125721;1096;22944;-79
2021/08/08 01:59:13;;;;;;;7.95;1.30;;;;;;;17.32;78.20;99410.84;125764;1096;23034;-78
2021/08/08 02:01:45;;;;;;;4.55;0.90;;;;;;;17.32;78.68;99416.48;125714;1096;27126;-79
2021/08/08 02:04:22;;;;;;;5.30;0.80;;;;;;;17.32;78.51;99416.48;125807;1096;22787;-79
2021/08/08 02:06:55;;;;;;;5.25;1.15;;;;;;;17.32;78.86;99419.30;125875;1096;25947;-79
2021/08/08 02:09:26;;;;;;;4.65;0.85;;;;;;;17.31;78.39;99429.06;125777;1096;22857;-79
2021/08/08 02:11:58;;;;;;;4.70;0.80;;;;;;;17.31;78.71;99429.06;125780;1096;22938;-78
2021/08/08 02:14:29;;;;;;;5.80;1.20;;;;;;;17.30;78.51;99427.56;125785;1096;22806;-79
2021/08/08 02:17:01;;;;;;;5.15;1.00;;;;;;;17.30;78.59;99441.66;125741;1096;22807;-79
2021/08/08 02:19:32;;;;;;;5.05;0.80;;;;;;;17.30;78.11;99441.66;125769;1096;22821;-79
2021/08/08 02:22:04;;;;;;;2.77;0.57;;;;;;;17.32;78.23;99414.40;125757;1096;25874;-79
2021/08/08 02:24:35;;;;;;;2.35;0.70;;;;;;;17.36;78.27;99434.58;125724;1095;22822;-81
2021/08/08 02:27:07;;;;;;;4.00;0.80;;;;;;;17.36;78.22;99442.30;125746;1096;25886;-78
2021/08/08 02:29:41;;;;;;;7.45;1.30;;;;;;;17.36;78.12;99439.48;125756;1096;22812;-79
2021/08/08 02:32:14;;;;;;;2.65;0.70;;;;;;;17.35;78.11;99449.23;125806;1097;22851;-80
2021/08/08 02:34:47;;;;;;;4.15;0.70;;;;;;;17.35;78.30;99481.03;125728;1096;26303;-79
2021/08/08 02:37:18;;;;;;;9.00;0.70;;;;;;;17.33;78.26;99491.34;126110;1096;22756;-80
2021/08/08 02:39:49;;;;;;;2.10;0.60;;;;;;;17.31;78.48;99491.13;125773;1096;24514;-79
2021/08/08 02:42:22;;;;;;;3.15;0.80;;;;;;;17.28;78.69;99504.25;125771;1096;22803;-79
2021/08/08 02:44:53;;;;;;;2.30;0.55;;;;;;;17.25;78.89;99513.81;125755;1096;22799;-78
2021/08/08 02:47:26;;;;;;;1.95;0.70;;;;;;;17.22;78.89;99519.75;125784;1096;22893;-79
2021/08/08 02:49:58;;;;;;;3.80;0.75;;;;;;;17.18;79.27;99517.27;125657;1097;22890;-78
2021/08/08 02:52:30;;;;;;;2.40;0.60;;;;;;;17.14;79.25;99511.20;125749;1096;22865;-79
2021/08/08 02:55:02;;;;;;;2.55;0.70;;;;;;;17.12;78.94;99502.52;125879;1096;22776;-78
2021/08/08 02:57:33;;;;;;;5.20;0.70;;;;;;;17.11;79.33;99509.45;125741;1096;24563;-78
2021/08/08 03:00:05;;;;;;;5.97;0.90;;;;;;;17.10;79.21;99529.73;125690;1096;22876;-79
2021/08/08 03:02:36;;;;;;;3.07;0.60;;;;;;;17.04;79.77;99531.91;125769;1095;22793;-79
2021/08/08 03:05:10;;;;;;;3.25;0.75;;;;;;;17.00;79.68;99523.77;125754;1095;22777;-79
2021/08/08 03:07:42;;;;;;;3.30;0.90;;;;;;;16.95;79.70;99531.03;125920;1096;27663;-78
2021/08/08 03:10:15;;;;;;;5.75;0.90;;;;;;;16.93;79.94;99532.86;125743;1096;22777;-78
2021/08/08 03:12:50;;;;;;;4.55;0.80;;;;;;;16.93;79.84;99501.84;125756;1096;22855;-78
2021/08/08 03:15:22;;;;;;;3.70;1.03;;;;;;;16.94;80.14;99503.38;125754;1096;24506;-79
2021/08/08 03:17:57;;;;;;;3.05;0.80;;;;;;;16.95;80.48;99527.44;125728;1096;22868;-78
2021/08/08 03:20:29;;;;;;;4.40;0.80;;;;;;;16.89;80.67;99538.06;125738;1096;22937;-79
2021/08/08 03:23:00;;;;;;;5.25;1.60;;;;;;;16.87;80.67;99532.97;125744;1096;22867;-78
2021/08/08 03:25:32;;;;;;;3.85;0.95;;;;;;;16.84;80.61;99539.67;125705;1095;22813;-78
2021/08/08 03:28:09;;;;;;;3.80;1.00;;;;;;;16.84;80.76;99547.39;125877;1096;25962;-79
2021/08/08 03:30:40;;;;;;;5.10;1.15;;;;;;;16.82;80.35;99542.27;125737;1096;25996;-78
2021/08/08 03:33:12;;;;;;;3.83;1.10;;;;;;;16.81;80.65;99546.41;125766;1096;26936;-82
2021/08/08 03:35:46;;;;;;;4.15;1.10;;;;;;;16.79;80.72;99534.14;125780;1095;22880;-79
2021/08/08 03:38:17;;;;;;;4.00;1.00;;;;;;;16.78;80.56;99521.36;125814;1096;22806;-78
2021/08/08 03:40:52;;;;;;;3.70;1.00;;;;;;;16.77;80.57;99520.59;125781;1096;22775;-78
2021/08/08 03:43:25;;;;;;;6.10;1.15;;;;;;;16.79;80.99;99512.36;125705;1096;22976;-78
2021/08/08 03:45:56;;;;;;;2.80;0.90;;;;;;;16.78;80.60;99508.01;125878;1096;22815;-78
2021/08/08 03:48:28;;;;;;;4.55;1.00;;;;;;;16.77;80.86;99514.19;125944;1096;22935;-78
2021/08/08 03:51:00;;;;;;;5.70;1.10;;;;;;;16.76;80.60;99515.51;125729;1096;22935;-79
2021/08/08 03:53:35;;;;;;;3.15;1.00;;;;;;;16.74;80.82;99527.30;125803;1096;22801;-78
2021/08/08 03:56:07;;;;;;;3.35;1.05;;;;;;;16.73;80.83;99537.06;125792;1096;26254;-79
2021/08/08 03:58:38;;;;;;;4.50;1.20;;;;;;;16.74;81.08;99558.30;125733;1096;27652;-79
2021/08/08 04:01:09;;;;;;;5.20;1.10;;;;;;;16.70;81.20;99557.86;125861;1096;22890;-78
2021/08/08 04:03:42;;;;;;;4.40;1.13;;;;;;;16.69;81.41;99573.27;125736;1096;22878;-78
2021/08/08 04:06:13;;;;;;;5.65;1.10;;;;;;;16.69;81.56;99573.27;125779;1096;26031;-79
2021/08/08 04:08:45;;;;;;;4.35;1.20;;;;;;;16.72;81.50;99563.72;125778;1096;22792;-78
2021/08/08 04:11:16;;;;;;;5.63;1.10;;;;;;;16.75;81.60;99568.30;125788;1096;24318;-78
2021/08/08 04:13:49;;;;;;;4.90;1.17;;;;;;;16.80;81.68;99578.70;125725;1096;22819;-78
2021/08/08 04:16:20;;;;;;;6.25;1.20;;;;;;;16.82;81.68;99584.56;125834;1096;25945;-78
2021/08/08 04:18:51;;;;;;;7.35;1.60;;;;;;;16.84;81.39;99584.78;125764;1096;22800;-79
2021/08/08 04:21:22;;;;;;;3.95;1.10;;;;;;;16.87;81.36;99597.05;125711;1096;23071;-78
2021/08/08 04:23:54;;;;;;;6.35;1.30;;;;;;;16.90;81.58;99601.63;125702;1096;26403;-78
2021/08/08 04:26:28;;;;;;;4.70;1.03;;;;;;;16.91;81.42;99592.62;125967;1096;22800;-78
2021/08/08 04:28:59;;;;;;;4.93;0.93;;;;;;;16.94;81.60;99600.02;125711;1097;28550;-78
2021/08/08 04:31:34;;;;;;;6.40;1.15;;;;;;;16.97;81.27;99606.61;125712;1097;23519;-79
2021/08/08 04:34:07;;;;;;;3.80;0.95;;;;;;;16.95;81.72;99609.98;125779;1096;26249;-80
2021/08/08 04:36:38;;;;;;;10.75;1.50;;;;;;;16.99;81.28;99623.75;125765;1095;22822;-79
2021/08/08 04:39:09;;;;;;;4.15;1.00;;;;;;;16.99;81.51;99635.03;125845;1096;22837;-79
2021/08/08 04:41:41;;;;;;;4.15;1.10;;;;;;;17.01;81.60;99638.07;125741;1096;22860;-79
2021/08/08 04:44:12;;;;;;;4.25;1.10;;;;;;;17.02;81.37;99645.25;125794;1096;22797;-79
2021/08/08 04:46:44;;;;;;;4.60;0.80;;;;;;;17.05;81.29;99640.59;125633;1096;22793;-79
2021/08/08 04:49:15;;;;;;;3.50;0.83;;;;;;;17.05;81.64;99632.88;125665;1097;23492;-79
2021/08/08 04:51:46;;;;;;;4.80;1.00;;;;;;;17.07;81.51;99635.92;125687;1096;27322;-80
2021/08/08 04:54:18;;;;;;;3.25;0.90;;;;;;;17.07;81.69;99641.56;125649;1097;22816;-79
2021/08/08 04:56:49;;;;;;;4.50;0.90;;;;;;;17.09;81.27;99644.59;125678;1096;23414;-79
2021/08/08 04:59:20;;;;;;;5.60;1.10;;;;;;;17.09;81.54;99664.34;125670;1096;22860;-79
2021/08/08 05:01:51;;;;;;;4.70;0.90;;;;;;;17.11;81.20;99677.92;125666;1096;26009;-79
2021/08/08 05:04:23;;;;;;;5.70;0.90;;;;;;;17.14;81.48;99679.66;125732;1095;26299;-81
2021/08/08 05:06:54;;;;;;;5.13;0.70;;;;;;;17.15;81.07;99673.50;125719;1096;25938;-79
2021/08/08 05:09:25;;;;;;;5.30;0.90;;;;;;;17.18;81.37;99678.05;125654;1096;24506;-80
2021/08/08 05:11:57;;;;;;;4.27;1.00;;;;;;;17.21;81.47;99693.91;125693;1095;23042;-79
2021/08/08 05:14:29;;;;;;;4.55;1.00;;;;;;;17.21;81.42;99702.38;125715;1095;22813;-79
2021/08/08 05:17:01;;;;;;;4.45;0.90;;;;;;;17.25;81.30;99705.64;125794;1097;22806;-83
2021/08/08 05:19:33;;;;;;;4.00;0.90;;;;;;;17.26;81.46;99709.20;125750;1096;22826;-78
2021/08/08 05:22:05;;;;;;;2.35;0.70;;;;;;;17.30;81.62;99706.84;125797;1095;26069;-79
2021/08/08 05:24:37;;;;;;;3.55;0.80;;;;;;;17.35;81.81;99711.62;125758;1096;22822;-79
2021/08/08 05:27:09;;;;;;;2.30;0.70;;;;;;;17.43;81.37;99715.33;125714;1096;26711;-78
2021/08/08 05:29:40;;;;;;;2.95;0.50;;;;;;;17.51;81.79;99728.30;125688;1096;25887;-79
2021/08/08 05:32:11;;;;;;;3.50;0.80;;;;;;;17.61;81.46;99720.16;125774;1096;27400;-80
2021/08/08 05:34:42;;;;;;;4.90;0.90;;;;;;;17.68;81.21;99716.71;125779;1096;22874;-75
2021/08/08 05:37:13;;;;;;;3.20;0.70;;;;;;;17.75;81.33;99710.44;125725;1096;28333;-76
2021/08/08 05:39:45;;;;;;;3.80;0.70;;;;;;;17.81;80.75;99727.27;125663;1096;26299;-76
2021/08/08 05:42:22;;;;;;;2.80;0.70;;;;;;;17.83;80.60;99731.07;125670;1096;22825;-76
2021/08/08 05:44:53;;;;;;;3.55;0.70;;;;;;;17.86;80.53;99724.33;125617;1096;25883;-76
2021/08/08 05:47:25;;;;;;;3.10;0.65;;;;;;;17.88;80.63;99733.02;125667;1096;23222;-76
2021/08/08 05:49:56;;;;;;;3.65;0.70;;;;;;;17.91;80.57;99729.13;125664;1095;22786;-76
2021/08/08 05:52:30;;;;;;;1.95;0.60;;;;;;;17.94;79.98;99732.93;125684;1095;22998;-76
2021/08/08 05:55:03;;;;;;;3.85;0.80;;;;;;;17.93;80.21;99723.69;125676;1096;25983;-76
2021/08/08 05:57:35;;;;;;;3.10;0.70;;;;;;;17.95;80.02;99725.97;125700;1094;22793;-75
2021/08/08 06:00:08;;;;;;;2.40;0.70;;;;;;;17.96;80.03;99722.59;125659;1096;22766;-76
2021/08/08 06:02:39;;;;;;;3.25;0.60;;;;;;;17.97;80.06;99712.83;126056;1096;22787;-77
2021/08/08 06:05:13;;;;;;;3.10;0.70;;;;;;;18.01;80.42;99713.27;125784;1096;22874;-77
2021/08/08 06:07:46;;;;;;;3.45;0.70;;;;;;;18.02;80.06;99720.41;125818;1096;22886;-76
2021/08/08 06:10:18;;;;;;;2.20;0.60;;;;;;;18.05;80.00;99710.10;125686;1096;22790;-76
2021/08/08 06:12:53;;;;;;;2.55;0.80;;;;;;;18.08;79.76;99701.32;125695;1095;26008;-76
2021/08/08 06:15:24;;;;;;;3.20;0.70;;;;;;;18.12;80.03;99698.16;125753;1096;22883;-76
2021/08/08 06:17:57;;;;;;;4.00;0.50;;;;;;;18.13;79.22;99708.14;125707;1096;24444;-77
2021/08/08 06:20:28;;;;;;;3.45;0.60;;;;;;;18.12;79.16;99718.70;125665;1095;26777;-76
2021/08/08 06:23:00;;;;;;;3.10;0.67;;;;;;;18.10;79.12;99718.48;125656;1096;24474;-77
2021/08/08 06:25:34;;;;;;;2.35;0.70;;;;;;;18.12;78.94;99730.00;125751;1096;24541;-76
2021/08/08 06:28:14;;;;;;;3.70;0.70;;;;;;;18.12;79.07;99754.66;125681;1096;23678;-76
2021/08/08 06:30:45;;;;;;;3.33;0.70;;;;;;;18.12;78.80;99758.25;125629;1095;22803;-78
2021/08/08 06:33:19;;;;;;;4.00;0.70;;;;;;;18.12;78.61;99768.78;125657;1096;26046;-76
2021/08/08 06:35:52;;;;;;;2.23;0.60;;;;;;;18.11;78.88;99761.59;125706;1096;25945;-76
2021/08/08 06:38:24;;;;;;;3.15;0.50;;;;;;;18.11;78.74;99756.72;125778;1096;25957;-76
2021/08/08 06:40:55;;;;;;;3.05;0.80;;;;;;;18.13;78.48;99761.81;125670;1096;22892;-76
2021/08/08 06:43:26;;;;;;;2.85;0.70;;;;;;;18.15;78.48;99748.67;125722;1096;24455;-77
2021/08/08 06:45:58;;;;;;;3.55;0.60;;;;;;;18.16;78.37;99733.26;125720;1096;24630;-76
2021/08/08 06:48:30;;;;;;;4.50;0.60;;;;;;;18.22;78.71;99733.14;125702;1097;22839;-76
2021/08/08 06:51:01;;;;;;;3.20;0.60;;;;;;;18.28;78.18;99742.27;125739;1096;22889;-76
2021/08/08 06:53:33;;;;;;;2.00;0.60;;;;;;;18.34;78.30;99735.20;125705;1096;22817;-76
2021/08/08 06:56:06;;;;;;;3.23;0.60;;;;;;;18.41;77.93;99754.33;125638;1096;22806;-77
2021/08/08 06:59:22;;;;;;;3.90;0.70;;;;;;;18.45;77.36;99762.50;125669;1096;26258;-76
2021/08/08 07:01:53;;;;;;;2.30;0.60;;;;;;;18.48;77.79;99756.51;125698;1096;25881;-75
2021/08/08 07:04:25;;;;;;;2.10;0.50;;;;;;;18.50;77.05;99759.55;125693;1096;23726;-76
2021/08/08 07:06:58;;;;;;;3.65;0.60;;;;;;;18.54;77.29;99759.21;125654;1096;22804;-76
2021/08/08 07:09:31;;;;;;;3.33;0.63;;;;;;;18.59;76.78;99747.04;125854;1096;23430;-77
2021/08/08 07:12:03;;;;;;;2.73;0.57;;;;;;;18.62;77.15;99745.95;125851;1095;26261;-77
2021/08/08 07:14:35;;;;;;;4.58;0.68;;;;;;;18.65;76.79;99747.67;125791;1096;26315;-76
2021/08/08 07:17:07;;;;;;;4.00;0.80;;;;;;;18.68;76.91;99757.14;125711;1096;22832;-76
2021/08/08 07:19:39;;;;;;;1.77;0.53;;;;;;;18.72;77.25;99755.50;125842;1095;28071;-76
2021/08/08 07:22:11;;;;;;;2.25;0.60;;;;;;;18.79;77.01;99754.81;125788;1096;22831;-76
2021/08/08 07:24:44;;;;;;;2.80;0.60;;;;;;;18.90;76.76;99763.06;125828;1096;22870;-77
2021/08/08 07:27:15;;;;;;;3.17;0.70;;;;;;;19.01;76.60;99747.91;125904;1096;22803;-76
2021/08/08 07:29:47;;;;;;;4.20;0.70;;;;;;;19.07;75.68;99752.14;125692;1096;27304;-76
2021/08/08 07:32:19;;;;;;;2.27;0.60;;;;;;;19.13;75.77;99749.17;125797;1096;22810;-76
2021/08/08 07:34:51;;;;;;;3.90;0.57;;;;;;;19.19;75.95;99759.05;125755;1096;25890;-77
2021/08/08 07:37:23;;;;;;;6.00;0.70;;;;;;;19.28;75.96;99783.29;125772;1095;22788;-76
2021/08/08 07:39:57;;;;;;;2.15;0.60;;;;;;;19.33;75.18;99790.88;125749;1096;22834;-77
2021/08/08 07:42:29;;;;;;;2.47;0.63;;;;;;;19.34;75.12;99795.27;125726;1096;22845;-76
2021/08/08 07:45:00;;;;;;;2.97;0.60;;;;;;;19.34;74.90;99809.42;125709;1096;22791;-76
2021/08/08 07:47:32;;;;;;;2.20;0.53;;;;;;;19.33;74.75;99817.14;125706;1096;26411;-76
2021/08/08 07:50:04;;;;;;;2.08;0.60;;;;;;;19.33;74.53;99810.69;125829;1096;22884;-76
2021/08/08 07:52:37;;;;;;;3.73;0.60;;;;;;;19.34;74.76;99823.58;125685;1094;25999;-76
2021/08/08 07:55:11;;;;;;;4.73;0.70;;;;;;;19.34;74.17;99824.34;125772;1096;26305;-76
2021/08/08 07:57:42;;;;;;;2.68;0.55;;;;;;;19.38;74.39;99826.05;125837;1096;24445;-76
2021/08/08 08:00:16;;;;;;;3.20;0.60;;;;;;;19.44;74.53;99818.19;125657;1096;22809;-76
2021/08/08 08:02:47;;;;;;;1.63;0.53;;;;;;;19.49;74.04;99826.55;125705;1096;22871;-76
2021/08/08 08:05:18;;;;;;;6.83;0.60;;;;;;;19.51;74.00;99826.78;125754;1096;22787;-76
2021/08/08 08:07:50;;;;;;;1.80;0.70;;;;;;;19.57;74.04;99823.80;125645;1096;22810;-76
2021/08/08 08:10:22;;;;;;;3.33;0.80;;;;;;;19.70;74.12;99827.32;125868;1096;22802;-75
2021/08/08 08:12:53;;;;;;;5.97;0.60;;;;;;;19.85;73.47;99827.47;125756;1096;22871;-76
2021/08/08 08:15:25;;;;;;;1.80;0.55;;;;;;;19.95;73.04;99831.33;125678;1096;22834;-75
2021/08/08 08:17:56;;;;;;;3.28;0.70;;;;;;;20.01;71.55;99840.44;125662;1096;22799;-76
2021/08/08 08:20:28;;;;;;;2.73;0.55;;;;;;;20.08;71.99;99842.59;125778;1095;22783;-76
2021/08/08 08:23:00;;;;;;;3.65;0.80;;;;;;;20.24;72.21;99839.88;125696;1095;22829;-77
2021/08/08 08:25:33;;;;;;;3.03;0.88;;;;;;;20.37;71.87;99849.06;125825;1096;24293;-76
2021/08/08 08:28:05;;;;;;;2.65;0.60;;;;;;;20.48;71.09;99853.67;125753;1096;27195;-77
2021/08/08 08:30:36;;;;;;;3.43;0.60;;;;;;;20.51;70.10;99849.71;125763;1096;22829;-76
2021/08/08 08:33:09;;;;;;;3.27;0.50;;;;;;;20.54;70.03;99854.28;125679;1096;26248;-76
2021/08/08 08:35:40;;;;;;;1.90;0.50;;;;;;;20.57;70.22;99856.75;125790;1095;22786;-77
2021/08/08 08:38:12;;;;;;;4.30;1.00;;;;;;;20.59;69.72;99859.02;125864;1096;27227;-78
2021/08/08 08:40:50;;;;;;;1.70;0.60;;;;;;;20.61;69.80;99839.40;125748;1096;22864;-78
2021/08/08 08:43:25;;;;;;;3.78;0.70;;;;;;;20.61;69.92;99842.97;125750;1095;22776;-77
2021/08/08 08:45:58;;;;;;;2.88;0.63;;;;;;;20.62;69.69;99847.34;125779;1096;22824;-77
2021/08/08 08:48:32;;;;;;;1.83;0.50;;;;;;;20.62;69.51;99849.41;125893;1096;22751;-76
2021/08/08 08:51:06;;;;;;;3.53;0.40;;;;;;;20.65;68.99;99842.64;125824;1096;22864;-78
2021/08/08 08:53:38;;;;;;;4.95;0.80;;;;;;;20.78;69.17;99854.61;125780;1096;22795;-76
2021/08/08 08:56:10;;;;;;;2.83;0.60;;;;;;;20.93;69.35;99851.09;125831;1096;26277;-76
2021/08/08 08:58:43;;;;;;;5.55;0.50;;;;;;;21.09;68.69;99849.86;125797;1096;26582;-77
2021/08/08 09:01:14;;;;;;;4.65;0.65;;;;;;;21.23;68.66;99854.08;125889;1096;22850;-77
2021/08/08 09:03:50;;;;;;;4.33;0.60;;;;;;;21.34;68.04;99852.98;125828;1096;27693;-77
2021/08/08 09:06:22;;;;;;;2.20;0.60;;;;;;;21.38;67.40;99856.97;125693;1096;24614;-76
2021/08/08 09:08:53;;;;;;;2.40;0.45;;;;;;;21.39;66.33;99860.58;125816;1096;24481;-76
2021/08/08 09:11:25;;;;;;;3.38;0.30;;;;;;;21.39;64.84;99861.34;125712;1096;22948;-76
2021/08/08 09:13:58;;;;;;;2.40;0.30;;;;;;;21.45;64.99;99861.16;125727;1096;22783;-77
2021/08/08 09:16:29;;;;;;;1.63;0.20;;;;;;;21.50;64.15;99858.14;125916;1096;22861;-76
2021/08/08 09:19:01;;;;;;;2.18;0.33;;;;;;;21.53;64.55;99851.34;125825;1096;22805;-77
2021/08/08 09:21:33;;;;;;;1.30;0.30;;;;;;;21.65;63.64;99861.02;125812;1096;27220;-76
2021/08/08 09:24:07;;;;;;;1.98;0.40;;;;;;;21.73;63.28;99861.02;125764;1096;22809;-77
2021/08/08 09:26:40;;;;;;;1.63;0.30;;;;;;;21.89;63.83;99853.32;125716;1096;22803;-78
2021/08/08 09:29:18;;;;;;;5.00;0.40;;;;;;;22.05;63.34;99858.44;125805;1096;22839;-76
2021/08/08 09:31:52;;;;;;;1.05;0.35;;;;;;;22.15;60.96;99861.47;125905;1096;26388;-78
2021/08/08 09:34:30;;;;;;;1.63;0.30;;;;;;;22.20;61.23;99869.80;125763;1096;22764;-76
2021/08/08 09:37:04;;;;;;;3.58;0.50;;;;;;;22.33;62.66;99866.77;125741;1096;22843;-76
2021/08/08 09:39:40;;;;;;;2.17;0.43;;;;;;;22.44;61.94;99869.23;125796;1096;26261;-76
2021/08/08 09:42:14;;;;;;;2.43;0.40;;;;;;;22.45;60.98;99878.53;125785;1096;22774;-76
2021/08/08 09:45:00;;;;;;;3.83;0.30;;;;;;;22.36;59.15;99879.09;125917;1096;26028;-78
2021/08/08 09:47:47;;;;;;;0.88;0.25;;;;;;;22.19;60.07;99873.22;125987;1096;22880;-77
2021/08/08 09:50:22;;;;;;;1.00;0.30;;;;;;;22.03;60.02;99866.02;125776;1096;22823;-78
2021/08/08 09:52:59;;;;;;;3.90;0.40;;;;;;;21.93;60.82;99862.99;125740;1096;22948;-76
2021/08/08 09:55:33;;;;;;;2.48;0.33;;;;;;;21.98;60.46;99864.88;126034;1096;22880;-76
2021/08/08 09:58:17;;;;;;;1.98;0.30;;;;;;;22.07;60.93;99861.48;125808;1096;26978;-77
2021/08/08 10:00:51;;;;;;;2.43;0.40;;;;;;;22.17;60.46;99868.11;125796;1096;26255;-76
2021/08/08 10:03:25;;;;;;;2.70;0.40;;;;;;;22.25;60.84;99883.08;125692;1096;22829;-76
2021/08/08 10:05:58;;;;;;;1.75;0.40;;;;;;;22.33;60.62;99880.22;125708;1097;27303;-76
2021/08/08 10:08:31;;;;;;;1.75;0.40;;;;;;;22.49;59.50;99895.97;125771;1096;22789;-76
2021/08/08 10:11:05;;;;;;;2.20;0.20;;;;;;;22.59;58.75;99896.17;125646;1096;22885;-77
2021/08/08 10:13:52;;;;;;;2.58;0.30;;;;;;;22.62;57.89;99900.70;125659;1094;22787;-76
2021/08/08 10:16:24;;;;;;;2.85;0.40;;;;;;;22.66;58.89;99898.99;125682;1096;22877;-77
2021/08/08 10:19:01;;;;;;;1.98;0.33;;;;;;;22.67;58.83;99894.06;125743;1096;22909;-77
2021/08/08 10:21:38;;;;;;;2.70;0.45;;;;;;;22.67;58.83;99894.06;125695;1096;22786;-77
2021/08/08 10:24:14;;;;;;;5.18;0.43;;;;;;;22.68;58.86;99890.64;125668;1096;22790;-76
2021/08/08 10:26:46;;;;;;;1.43;0.30;;;;;;;22.79;58.99;99892.33;125746;1095;22816;-77
2021/08/08 10:29:21;;;;;;;2.15;0.30;;;;;;;22.88;58.87;99892.52;125664;1096;22821;-76
2021/08/08 10:31:55;;;;;;;4.03;0.40;;;;;;;23.02;58.37;99890.95;125714;1096;22849;-77
2021/08/08 10:34:32;;;;;;;3.40;0.45;;;;;;;23.19;57.88;99893.94;125729;1096;22809;-76
2021/08/08 10:37:15;;;;;;;4.47;0.60;;;;;;;23.26;57.33;99898.83;125749;1096;22805;-77
2021/08/08 10:39:50;;;;;;;3.00;0.70;;;;;;;23.25;55.91;99905.88;125804;1096;26845;-77
2021/08/08 10:42:25;;;;;;;1.95;0.40;;;;;;;23.25;56.75;99902.26;125768;1096;22783;-78
2021/08/08 10:44:59;;;;;;;1.13;0.30;;;;;;;23.26;56.32;99900.91;125655;1096;22939;-76
2021/08/08 10:47:33;;;;;;;1.93;0.33;;;;;;;23.30;57.47;99902.03;125806;1096;26302;-77
2021/08/08 10:50:14;;;;;;;2.77;0.30;;;;;;;23.41;56.34;99897.27;125770;1096;23527;-76
2021/08/08 10:52:46;;;;;;;2.25;0.38;;;;;;;23.49;56.36;99889.44;125698;1096;22980;-76
2021/08/08 10:55:27;;;;;;;1.60;0.40;;;;;;;23.51;54.62;99893.23;125842;1096;22807;-77
2021/08/08 10:58:13;;;;;;;0.70;0.20;;;;;;;23.51;55.27;99896.08;125813;1096;22792;-76
2021/08/08 11:00:46;;;;;;;0.90;0.25;;;;;;;23.65;56.66;99893.74;125733;1096;22736;-77
2021/08/08 11:03:18;;;;;;;5.80;0.30;;;;;;;23.86;56.10;99894.16;125644;1095;22725;-76
2021/08/08 11:05:50;;;;;;;2.68;0.20;;;;;;;24.07;55.48;99897.47;125743;1096;26607;-76
2021/08/08 11:08:25;;;;;;;1.50;0.23;;;;;;;24.21;54.29;99892.98;125711;1096;22770;-77
2021/08/08 11:10:56;;;;;;;2.75;0.23;;;;;;;24.29;51.61;99895.80;125814;1096;22909;-77
2021/08/08 11:13:28;;;;;;;0.93;0.20;;;;;;;24.29;53.20;99907.20;125647;1096;22785;-76
2021/08/08 11:15:59;;;;;;;4.50;0.30;;;;;;;24.21;52.99;99898.69;125630;1096;25563;-77
2021/08/08 11:18:32;;;;;;;1.73;0.25;;;;;;;24.14;52.85;99907.31;125698;1096;22824;-77
2021/08/08 11:21:13;;;;;;;1.43;0.40;;;;;;;24.08;53.35;99907.55;125783;1096;22794;-76
2021/08/08 11:23:45;;;;;;;1.30;0.20;;;;;;;24.07;53.04;99906.79;125754;1096;22821;-76
2021/08/08 11:26:20;;;;;;;2.15;0.30;;;;;;;24.15;54.29;99903.88;125741;1096;22783;-76
2021/08/08 11:28:59;;;;;;;1.05;0.30;;;;;;;24.27;54.06;99896.35;125906;1096;22808;-76
2021/08/08 11:31:33;;;;;;;2.65;0.30;;;;;;;24.45;54.31;99905.73;125729;1096;22883;-76
2021/08/08 11:34:07;;;;;;;4.45;0.30;;;;;;;24.60;54.22;99900.63;125760;1096;22824;-81
2021/08/08 11:36:41;;;;;;;1.65;0.25;;;;;;;24.71;53.09;99908.70;125794;1096;28536;-79
2021/08/08 11:39:14;;;;;;;4.50;0.40;;;;;;;24.82;53.72;99896.84;125776;1096;26002;-78
2021/08/08 11:41:47;;;;;;;1.87;0.27;;;;;;;24.94;53.43;99896.31;125804;1096;22786;-79
2021/08/08 11:44:19;;;;;;;1.48;0.30;;;;;;;24.97;53.12;99910.20;125815;1095;22733;-79
2021/08/08 11:46:54;;;;;;;1.03;0.20;;;;;;;24.92;51.51;99901.86;126043;1095;22792;-78
2021/08/08 11:49:26;;;;;;;1.95;0.10;;;;;;;24.83;49.84;99911.84;125867;1096;22872;-79
2021/08/08 11:52:02;;;;;;;0.70;0.10;;;;;;;24.83;49.60;99906.13;125768;1095;22757;-80